sensor_id;sensor_type;location;lat;lon;timestamp;temperature;humidity
5578;DHT22;2811;51.900;10.734;2024-03-02T00:00:39;8.60;99.90
5578;DHT22;2811;51.900;10.734;2024-03-02T00:03:07;8.60;99.90
5578;DHT22;2811;51.900;10.734;2024-03-02T00:05:35;8.60;99.90
5578;DHT22;2811;51.900;10.734;2024-03-02T00:08:02;8.60;99.90
5578;DHT22;2811;51.900;10.734;2024-03-02T00:10:36;8.80;99.90
5578;DHT22;2811;51.900;10.734;2024-03-02T00:13:05;8.70;99.90
5578;DHT22;2811;51.900;10.734;2024-03-02T00:15:41;8.70;99.90
5578;DHT22;2811;51.900;10.734;2024-03-02T00:18:10;8.90;99.90
5578;DHT22;2811;51.900;10.734;2024-03-02T00:20:38;8.80;99.90
5578;DHT22;2811;51.900;10.734;2024-03-02T00:23:05;8.80;99.90
5578;DHT22;2811;51.900;10.734;2024-03-02T00:25:37;9.20;99.90
5578;DHT22;2811;51.900;10.734;2024-03-02T00:28:04;9.20;99.90
5578;DHT22;2811;51.900;10.734;2024-03-02T00:30:51;9.00;99.90
5578;DHT22;2811;51.900;10.734;2024-03-02T00:33:21;8.80;99.90
5578;DHT22;2811;51.900;10.734;2024-03-02T00:35:48;9.00;99.90
5578;DHT22;2811;51.900;10.734;2024-03-02T00:38:15;9.00;99.90
5578;DHT22;2811;51.900;10.734;2024-03-02T00:40:42;8.80;99.90
5578;DHT22;2811;51.900;10.734;2024-03-02T00:43:39;9.00;99.90
5578;DHT22;2811;51.900;10.734;2024-03-02T00:46:07;9.30;99.90
5578;DHT22;2811;51.900;10.734;2024-03-02T00:48:35;9.30;99.90
5578;DHT22;2811;51.900;10.734;2024-03-02T00:51:03;8.90;99.90
5578;DHT22;2811;51.900;10.734;2024-03-02T00:53:31;8.60;99.90
5578;DHT22;2811;51.900;10.734;2024-03-02T00:55:58;8.50;99.90
5578;DHT22;2811;51.900;10.734;2024-03-02T00:58:25;8.60;99.90
5578;DHT22;2811;51.900;10.734;2024-03-02T01:00:52;8.70;99.90
5578;DHT22;2811;51.900;10.734;2024-03-02T01:03:18;8.50;99.90
5578;DHT22;2811;51.900;10.734;2024-03-02T01:05:47;8.30;99.90
5578;DHT22;2811;51.900;10.734;2024-03-02T01:08:13;8.20;99.90
5578;DHT22;2811;51.900;10.734;2024-03-02T01:10:40;8.20;99.90
5578;DHT22;2811;51.900;10.734;2024-03-02T01:13:07;8.20;99.90
5578;DHT22;2811;51.900;10.734;2024-03-02T01:15:33;8.30;99.90
5578;DHT22;2811;51.900;10.734;2024-03-02T01:18:00;8.30;99.90
5578;DHT22;2811;51.900;10.734;2024-03-02T01:20:27;8.10;99.90
5578;DHT22;2811;51.900;10.734;2024-03-02T01:22:55;8.10;99.90
5578;DHT22;2811;51.900;10.734;2024-03-02T01:25:21;8.10;99.90
5578;DHT22;2811;51.900;10.734;2024-03-02T01:27:48;8.00;99.90
5578;DHT22;2811;51.900;10.734;2024-03-02T01:30:15;8.10;99.90
5578;DHT22;2811;51.900;10.734;2024-03-02T01:32:42;8.20;99.90
5578;DHT22;2811;51.900;10.734;2024-03-02T01:35:08;8.40;99.90
5578;DHT22;2811;51.900;10.734;2024-03-02T01:37:35;8.30;99.90
5578;DHT22;2811;51.900;10.734;2024-03-02T01:40:04;8.30;99.90
5578;DHT22;2811;51.900;10.734;2024-03-02T01:42:35;8.40;99.90
5578;DHT22;2811;51.900;10.734;2024-03-02T01:45:02;8.20;99.90
5578;DHT22;2811;51.900;10.734;2024-03-02T01:47:29;8.10;99.90
5578;DHT22;2811;51.900;10.734;2024-03-02T01:49:55;8.10;99.90
5578;DHT22;2811;51.900;10.734;2024-03-02T01:52:22;8.00;99.90
5578;DHT22;2811;51.900;10.734;2024-03-02T01:54:49;8.00;99.90
5578;DHT22;2811;51.900;10.734;2024-03-02T01:57:17;8.20;99.90
5578;DHT22;2811;51.900;10.734;2024-03-02T01:59:44;8.20;99.90
5578;DHT22;2811;51.900;10.734;2024-03-02T02:02:13;8.20;99.90
5578;DHT22;2811;51.900;10.734;2024-03-02T02:04:39;8.20;99.90
5578;DHT22;2811;51.900;10.734;2024-03-02T02:07:06;8.10;99.90
5578;DHT22;2811;51.900;10.734;2024-03-02T02:09:33;8.20;99.90
5578;DHT22;2811;51.900;10.734;2024-03-02T02:11:59;8.30;99.90
5578;DHT22;2811;51.900;10.734;2024-03-02T02:14:27;8.30;99.90
5578;DHT22;2811;51.900;10.734;2024-03-02T02:16:54;8.30;99.90
5578;DHT22;2811;51.900;10.734;2024-03-02T02:19:21;8.30;99.90
5578;DHT22;2811;51.900;10.734;2024-03-02T02:21:49;8.40;99.90
5578;DHT22;2811;51.900;10.734;2024-03-02T02:24:15;8.20;99.90
5578;DHT22;2811;51.900;10.734;2024-03-02T02:26:42;8.20;99.90
5578;DHT22;2811;51.900;10.734;2024-03-02T02:29:08;8.20;99.90
5578;DHT22;2811;51.900;10.734;2024-03-02T02:31:38;8.30;99.90
5578;DHT22;2811;51.900;10.734;2024-03-02T02:34:05;8.30;99.90
5578;DHT22;2811;51.900;10.734;2024-03-02T02:36:32;8.40;99.90
5578;DHT22;2811;51.900;10.734;2024-03-02T02:39:02;8.30;99.90
5578;DHT22;2811;51.900;10.734;2024-03-02T02:41:29;8.30;99.90
5578;DHT22;2811;51.900;10.734;2024-03-02T02:43:56;8.20;99.90
5578;DHT22;2811;51.900;10.734;2024-03-02T02:46:23;8.30;99.90
5578;DHT22;2811;51.900;10.734;2024-03-02T02:48:49;8.20;99.90
5578;DHT22;2811;51.900;10.734;2024-03-02T02:51:18;8.30;99.90
5578;DHT22;2811;51.900;10.734;2024-03-02T02:53:45;8.30;99.90
5578;DHT22;2811;51.900;10.734;2024-03-02T02:56:13;8.20;99.90
5578;DHT22;2811;51.900;10.734;2024-03-02T02:58:40;8.20;99.90
5578;DHT22;2811;51.900;10.734;2024-03-02T03:01:07;8.10;99.90
5578;DHT22;2811;51.900;10.734;2024-03-02T03:03:34;8.10;99.90
5578;DHT22;2811;51.900;10.734;2024-03-02T03:06:00;7.90;99.90
5578;DHT22;2811;51.900;10.734;2024-03-02T03:08:27;7.80;99.90
5578;DHT22;2811;51.900;10.734;2024-03-02T03:10:54;8.10;99.90
5578;DHT22;2811;51.900;10.734;2024-03-02T03:13:22;8.00;99.90
5578;DHT22;2811;51.900;10.734;2024-03-02T03:15:49;8.00;99.90
5578;DHT22;2811;51.900;10.734;2024-03-02T03:18:15;8.10;99.90
5578;DHT22;2811;51.900;10.734;2024-03-02T03:20:42;8.00;99.90
5578;DHT22;2811;51.900;10.734;2024-03-02T03:23:09;8.10;99.90
5578;DHT22;2811;51.900;10.734;2024-03-02T03:25:40;8.10;99.90
5578;DHT22;2811;51.900;10.734;2024-03-02T03:28:07;8.10;99.90
5578;DHT22;2811;51.900;10.734;2024-03-02T03:30:36;8.20;99.90
5578;DHT22;2811;51.900;10.734;2024-03-02T03:33:03;8.30;99.90
5578;DHT22;2811;51.900;10.734;2024-03-02T03:35:31;8.30;99.90
5578;DHT22;2811;51.900;10.734;2024-03-02T03:37:58;8.20;99.90
5578;DHT22;2811;51.900;10.734;2024-03-02T03:40:24;8.20;99.90
5578;DHT22;2811;51.900;10.734;2024-03-02T03:42:51;8.20;99.90
5578;DHT22;2811;51.900;10.734;2024-03-02T03:45:18;8.40;99.90
5578;DHT22;2811;51.900;10.734;2024-03-02T03:47:46;8.40;99.90
5578;DHT22;2811;51.900;10.734;2024-03-02T03:50:13;8.20;99.90
5578;DHT22;2811;51.900;10.734;2024-03-02T03:52:39;8.30;99.90
5578;DHT22;2811;51.900;10.734;2024-03-02T03:55:07;8.20;99.90
5578;DHT22;2811;51.900;10.734;2024-03-02T03:57:33;8.20;99.90
5578;DHT22;2811;51.900;10.734;2024-03-02T04:00:00;8.20;99.90
5578;DHT22;2811;51.900;10.734;2024-03-02T04:02:27;8.20;99.90
5578;DHT22;2811;51.900;10.734;2024-03-02T04:04:55;8.50;99.90
5578;DHT22;2811;51.900;10.734;2024-03-02T04:07:21;8.60;99.90
5578;DHT22;2811;51.900;10.734;2024-03-02T04:09:48;8.50;99.90
5578;DHT22;2811;51.900;10.734;2024-03-02T04:12:15;8.50;99.90
5578;DHT22;2811;51.900;10.734;2024-03-02T04:14:41;8.50;99.90
5578;DHT22;2811;51.900;10.734;2024-03-02T04:17:08;8.40;99.90
5578;DHT22;2811;51.900;10.734;2024-03-02T04:19:35;8.20;99.90
5578;DHT22;2811;51.900;10.734;2024-03-02T04:22:03;8.20;99.90
5578;DHT22;2811;51.900;10.734;2024-03-02T04:24:30;8.40;99.90
5578;DHT22;2811;51.900;10.734;2024-03-02T04:26:57;8.10;99.90
5578;DHT22;2811;51.900;10.734;2024-03-02T04:29:23;8.10;99.90
5578;DHT22;2811;51.900;10.734;2024-03-02T04:31:50;8.10;99.90
5578;DHT22;2811;51.900;10.734;2024-03-02T04:34:17;8.00;99.90
5578;DHT22;2811;51.900;10.734;2024-03-02T04:36:43;7.90;99.90
5578;DHT22;2811;51.900;10.734;2024-03-02T04:39:11;7.80;99.90
5578;DHT22;2811;51.900;10.734;2024-03-02T04:41:38;7.80;99.90
5578;DHT22;2811;51.900;10.734;2024-03-02T04:44:05;7.90;99.90
5578;DHT22;2811;51.900;10.734;2024-03-02T04:46:33;7.90;99.90
5578;DHT22;2811;51.900;10.734;2024-03-02T04:49:00;7.70;99.90
5578;DHT22;2811;51.900;10.734;2024-03-02T04:51:26;7.80;99.90
5578;DHT22;2811;51.900;10.734;2024-03-02T04:53:53;7.90;99.90
5578;DHT22;2811;51.900;10.734;2024-03-02T04:56:21;7.90;99.90
5578;DHT22;2811;51.900;10.734;2024-03-02T04:59:05;7.90;99.90
5578;DHT22;2811;51.900;10.734;2024-03-02T05:01:32;7.80;99.90
5578;DHT22;2811;51.900;10.734;2024-03-02T05:03:59;8.00;99.90
5578;DHT22;2811;51.900;10.734;2024-03-02T05:06:26;7.80;99.90
5578;DHT22;2811;51.900;10.734;2024-03-02T05:08:52;7.70;99.90
5578;DHT22;2811;51.900;10.734;2024-03-02T05:11:20;7.70;99.90
5578;DHT22;2811;51.900;10.734;2024-03-02T05:14:18;7.70;99.90
5578;DHT22;2811;51.900;10.734;2024-03-02T05:16:45;7.80;99.90
5578;DHT22;2811;51.900;10.734;2024-03-02T05:19:10;7.80;99.90
5578;DHT22;2811;51.900;10.734;2024-03-02T05:21:37;7.80;99.90
5578;DHT22;2811;51.900;10.734;2024-03-02T05:24:04;7.80;99.90
5578;DHT22;2811;51.900;10.734;2024-03-02T05:26:32;7.80;99.90
5578;DHT22;2811;51.900;10.734;2024-03-02T05:28:59;7.70;99.90
5578;DHT22;2811;51.900;10.734;2024-03-02T05:31:25;7.70;99.90
5578;DHT22;2811;51.900;10.734;2024-03-02T05:33:52;7.80;99.90
5578;DHT22;2811;51.900;10.734;2024-03-02T05:36:19;7.60;99.90
5578;DHT22;2811;51.900;10.734;2024-03-02T05:38:46;7.50;99.90
5578;DHT22;2811;51.900;10.734;2024-03-02T05:41:12;7.60;99.90
5578;DHT22;2811;51.900;10.734;2024-03-02T05:43:40;7.70;99.90
5578;DHT22;2811;51.900;10.734;2024-03-02T05:46:07;7.70;99.90
5578;DHT22;2811;51.900;10.734;2024-03-02T05:48:34;7.60;99.90
5578;DHT22;2811;51.900;10.734;2024-03-02T05:51:00;7.60;99.90
5578;DHT22;2811;51.900;10.734;2024-03-02T05:53:27;7.60;99.90
5578;DHT22;2811;51.900;10.734;2024-03-02T05:55:54;7.70;99.90
5578;DHT22;2811;51.900;10.734;2024-03-02T05:58:21;7.70;99.90
5578;DHT22;2811;51.900;10.734;2024-03-02T06:01:00;7.70;99.90
5578;DHT22;2811;51.900;10.734;2024-03-02T06:03:27;7.40;99.90
5578;DHT22;2811;51.900;10.734;2024-03-02T06:05:54;7.40;99.90
5578;DHT22;2811;51.900;10.734;2024-03-02T06:08:21;7.40;99.90
5578;DHT22;2811;51.900;10.734;2024-03-02T06:10:48;7.50;99.90
5578;DHT22;2811;51.900;10.734;2024-03-02T06:13:14;7.50;99.90
5578;DHT22;2811;51.900;10.734;2024-03-02T06:15:41;7.50;99.90
5578;DHT22;2811;51.900;10.734;2024-03-02T06:18:09;7.60;99.90
5578;DHT22;2811;51.900;10.734;2024-03-02T06:20:36;7.70;99.90
5578;DHT22;2811;51.900;10.734;2024-03-02T06:23:03;7.70;99.90
5578;DHT22;2811;51.900;10.734;2024-03-02T06:25:30;7.90;99.90
5578;DHT22;2811;51.900;10.734;2024-03-02T06:27:56;8.30;99.90
5578;DHT22;2811;51.900;10.734;2024-03-02T06:30:23;8.40;99.90
5578;DHT22;2811;51.900;10.734;2024-03-02T06:32:50;8.60;99.90
5578;DHT22;2811;51.900;10.734;2024-03-02T06:35:18;8.80;99.90
5578;DHT22;2811;51.900;10.734;2024-03-02T06:37:45;8.80;99.90
5578;DHT22;2811;51.900;10.734;2024-03-02T06:40:11;8.80;99.90
5578;DHT22;2811;51.900;10.734;2024-03-02T06:42:38;8.80;99.90
5578;DHT22;2811;51.900;10.734;2024-03-02T06:45:06;8.70;99.90
5578;DHT22;2811;51.900;10.734;2024-03-02T06:47:33;8.70;99.90
5578;DHT22;2811;51.900;10.734;2024-03-02T06:49:59;8.60;99.90
5578;DHT22;2811;51.900;10.734;2024-03-02T06:52:27;8.60;99.90
5578;DHT22;2811;51.900;10.734;2024-03-02T06:54:54;8.60;99.90
5578;DHT22;2811;51.900;10.734;2024-03-02T06:57:20;8.70;99.90
5578;DHT22;2811;51.900;10.734;2024-03-02T06:59:47;8.60;99.90
5578;DHT22;2811;51.900;10.734;2024-03-02T07:02:15;8.60;99.90
5578;DHT22;2811;51.900;10.734;2024-03-02T07:04:42;8.60;99.90
5578;DHT22;2811;51.900;10.734;2024-03-02T07:07:10;8.60;99.90
5578;DHT22;2811;51.900;10.734;2024-03-02T07:09:38;8.60;99.90
5578;DHT22;2811;51.900;10.734;2024-03-02T07:12:05;8.60;99.90
5578;DHT22;2811;51.900;10.734;2024-03-02T07:14:32;8.70;99.90
5578;DHT22;2811;51.900;10.734;2024-03-02T07:17:16;8.80;99.90
5578;DHT22;2811;51.900;10.734;2024-03-02T07:19:43;8.80;99.90
5578;DHT22;2811;51.900;10.734;2024-03-02T07:22:10;8.90;99.90
5578;DHT22;2811;51.900;10.734;2024-03-02T07:24:40;8.90;99.90
5578;DHT22;2811;51.900;10.734;2024-03-02T07:27:08;9.00;99.90
5578;DHT22;2811;51.900;10.734;2024-03-02T07:29:36;8.90;99.90
5578;DHT22;2811;51.900;10.734;2024-03-02T07:32:02;9.00;99.90
5578;DHT22;2811;51.900;10.734;2024-03-02T07:34:29;9.00;99.90
5578;DHT22;2811;51.900;10.734;2024-03-02T07:36:56;9.10;99.90
5578;DHT22;2811;51.900;10.734;2024-03-02T07:39:23;9.10;99.90
5578;DHT22;2811;51.900;10.734;2024-03-02T07:41:52;9.10;99.90
5578;DHT22;2811;51.900;10.734;2024-03-02T07:44:19;9.10;99.90
5578;DHT22;2811;51.900;10.734;2024-03-02T07:46:47;9.20;99.90
5578;DHT22;2811;51.900;10.734;2024-03-02T07:49:15;9.30;99.90
5578;DHT22;2811;51.900;10.734;2024-03-02T07:51:42;9.30;99.90
5578;DHT22;2811;51.900;10.734;2024-03-02T07:54:09;9.40;99.90
5578;DHT22;2811;51.900;10.734;2024-03-02T07:56:36;9.40;99.90
5578;DHT22;2811;51.900;10.734;2024-03-02T07:59:04;9.50;99.90
5578;DHT22;2811;51.900;10.734;2024-03-02T08:01:33;9.60;99.90
5578;DHT22;2811;51.900;10.734;2024-03-02T08:04:00;9.70;99.90
5578;DHT22;2811;51.900;10.734;2024-03-02T08:06:29;9.80;99.90
5578;DHT22;2811;51.900;10.734;2024-03-02T08:08:56;9.90;99.90
5578;DHT22;2811;51.900;10.734;2024-03-02T08:11:23;10.10;99.90
5578;DHT22;2811;51.900;10.734;2024-03-02T08:13:50;10.30;99.90
5578;DHT22;2811;51.900;10.734;2024-03-02T08:16:18;10.50;99.90
5578;DHT22;2811;51.900;10.734;2024-03-02T08:18:46;10.60;99.90
5578;DHT22;2811;51.900;10.734;2024-03-02T08:21:13;10.60;99.90
5578;DHT22;2811;51.900;10.734;2024-03-02T08:23:40;10.60;99.90
5578;DHT22;2811;51.900;10.734;2024-03-02T08:26:08;10.60;99.90
5578;DHT22;2811;51.900;10.734;2024-03-02T08:28:34;10.60;99.90
5578;DHT22;2811;51.900;10.734;2024-03-02T08:31:02;10.60;99.90
5578;DHT22;2811;51.900;10.734;2024-03-02T08:33:30;10.80;99.90
5578;DHT22;2811;51.900;10.734;2024-03-02T08:35:57;11.10;99.90
5578;DHT22;2811;51.900;10.734;2024-03-02T08:38:24;11.20;99.90
5578;DHT22;2811;51.900;10.734;2024-03-02T08:40:50;11.50;99.90
5578;DHT22;2811;51.900;10.734;2024-03-02T08:43:17;11.60;99.90
5578;DHT22;2811;51.900;10.734;2024-03-02T08:45:45;11.80;99.90
5578;DHT22;2811;51.900;10.734;2024-03-02T08:48:12;12.10;99.90
5578;DHT22;2811;51.900;10.734;2024-03-02T08:50:40;12.50;99.90
5578;DHT22;2811;51.900;10.734;2024-03-02T08:53:07;12.70;99.90
5578;DHT22;2811;51.900;10.734;2024-03-02T08:55:34;12.80;99.90
5578;DHT22;2811;51.900;10.734;2024-03-02T08:58:01;12.90;99.90
5578;DHT22;2811;51.900;10.734;2024-03-02T09:00:27;13.00;99.90
5578;DHT22;2811;51.900;10.734;2024-03-02T09:02:54;13.20;99.90
5578;DHT22;2811;51.900;10.734;2024-03-02T09:05:21;13.40;99.90
5578;DHT22;2811;51.900;10.734;2024-03-02T09:07:49;13.40;99.90
5578;DHT22;2811;51.900;10.734;2024-03-02T09:10:16;13.70;99.90
5578;DHT22;2811;51.900;10.734;2024-03-02T09:12:43;13.80;99.90
5578;DHT22;2811;51.900;10.734;2024-03-02T09:15:09;13.80;99.90
5578;DHT22;2811;51.900;10.734;2024-03-02T09:17:36;13.70;99.90
5578;DHT22;2811;51.900;10.734;2024-03-02T09:20:03;13.70;99.90
5578;DHT22;2811;51.900;10.734;2024-03-02T09:22:30;13.70;99.90
5578;DHT22;2811;51.900;10.734;2024-03-02T09:24:59;13.60;99.90
5578;DHT22;2811;51.900;10.734;2024-03-02T09:27:25;13.70;99.90
5578;DHT22;2811;51.900;10.734;2024-03-02T09:29:52;13.70;99.90
5578;DHT22;2811;51.900;10.734;2024-03-02T09:32:19;13.60;99.90
5578;DHT22;2811;51.900;10.734;2024-03-02T09:34:46;13.50;99.90
5578;DHT22;2811;51.900;10.734;2024-03-02T09:37:14;13.40;99.90
5578;DHT22;2811;51.900;10.734;2024-03-02T09:39:43;13.30;99.90
5578;DHT22;2811;51.900;10.734;2024-03-02T09:42:12;13.20;99.90
5578;DHT22;2811;51.900;10.734;2024-03-02T09:44:39;13.20;99.90
5578;DHT22;2811;51.900;10.734;2024-03-02T09:47:07;13.20;99.90
5578;DHT22;2811;51.900;10.734;2024-03-02T09:49:34;13.60;99.90
5578;DHT22;2811;51.900;10.734;2024-03-02T09:52:03;13.00;99.90
5578;DHT22;2811;51.900;10.734;2024-03-02T09:54:31;13.00;99.90
5578;DHT22;2811;51.900;10.734;2024-03-02T09:56:57;12.90;99.90
5578;DHT22;2811;51.900;10.734;2024-03-02T09:59:25;12.80;99.90
5578;DHT22;2811;51.900;10.734;2024-03-02T10:01:57;12.90;99.90
5578;DHT22;2811;51.900;10.734;2024-03-02T10:04:25;12.90;99.90
5578;DHT22;2811;51.900;10.734;2024-03-02T10:06:53;12.90;99.90
5578;DHT22;2811;51.900;10.734;2024-03-02T10:09:36;12.90;99.90
5578;DHT22;2811;51.900;10.734;2024-03-02T10:12:04;12.80;99.90
5578;DHT22;2811;51.900;10.734;2024-03-02T10:14:32;12.90;99.90
5578;DHT22;2811;51.900;10.734;2024-03-02T10:17:02;12.90;99.90
5578;DHT22;2811;51.900;10.734;2024-03-02T10:19:30;13.10;99.90
5578;DHT22;2811;51.900;10.734;2024-03-02T10:21:59;13.20;99.90
5578;DHT22;2811;51.900;10.734;2024-03-02T10:24:25;13.10;99.90
5578;DHT22;2811;51.900;10.734;2024-03-02T10:26:53;13.10;99.90
5578;DHT22;2811;51.900;10.734;2024-03-02T10:29:19;13.10;99.90
5578;DHT22;2811;51.900;10.734;2024-03-02T10:31:48;13.20;99.90
5578;DHT22;2811;51.900;10.734;2024-03-02T10:34:14;13.20;99.90
5578;DHT22;2811;51.900;10.734;2024-03-02T10:36:43;13.40;99.90
5578;DHT22;2811;51.900;10.734;2024-03-02T10:39:13;13.70;99.90
5578;DHT22;2811;51.900;10.734;2024-03-02T10:41:40;13.90;99.90
5578;DHT22;2811;51.900;10.734;2024-03-02T10:44:08;14.00;99.90
5578;DHT22;2811;51.900;10.734;2024-03-02T10:46:36;14.10;99.90
5578;DHT22;2811;51.900;10.734;2024-03-02T10:49:05;14.00;99.90
5578;DHT22;2811;51.900;10.734;2024-03-02T10:51:33;14.10;99.90
5578;DHT22;2811;51.900;10.734;2024-03-02T10:54:02;14.30;99.90
5578;DHT22;2811;51.900;10.734;2024-03-02T10:56:30;14.30;99.90
5578;DHT22;2811;51.900;10.734;2024-03-02T10:59:02;14.50;99.90
5578;DHT22;2811;51.900;10.734;2024-03-02T11:01:31;14.50;99.90
5578;DHT22;2811;51.900;10.734;2024-03-02T11:03:59;14.70;99.90
5578;DHT22;2811;51.900;10.734;2024-03-02T11:06:30;15.10;99.90
5578;DHT22;2811;51.900;10.734;2024-03-02T11:09:06;15.30;99.90
5578;DHT22;2811;51.900;10.734;2024-03-02T11:11:36;15.60;99.90
5578;DHT22;2811;51.900;10.734;2024-03-02T11:14:07;15.80;99.90
5578;DHT22;2811;51.900;10.734;2024-03-02T11:16:37;15.80;99.90
5578;DHT22;2811;51.900;10.734;2024-03-02T11:19:08;16.20;99.90
5578;DHT22;2811;51.900;10.734;2024-03-02T11:21:38;15.60;99.90
5578;DHT22;2811;51.900;10.734;2024-03-02T11:24:32;15.30;99.90
5578;DHT22;2811;51.900;10.734;2024-03-02T11:26:59;14.90;99.90
5578;DHT22;2811;51.900;10.734;2024-03-02T11:29:43;14.70;99.90
5578;DHT22;2811;51.900;10.734;2024-03-02T11:32:14;14.80;99.90
5578;DHT22;2811;51.900;10.734;2024-03-02T11:34:42;14.80;99.90
5578;DHT22;2811;51.900;10.734;2024-03-02T11:37:13;14.80;99.90
5578;DHT22;2811;51.900;10.734;2024-03-02T11:39:40;14.90;99.90
5578;DHT22;2811;51.900;10.734;2024-03-02T11:42:07;15.10;99.90
5578;DHT22;2811;51.900;10.734;2024-03-02T11:44:35;15.30;99.90
5578;DHT22;2811;51.900;10.734;2024-03-02T11:47:05;15.60;99.90
5578;DHT22;2811;51.900;10.734;2024-03-02T11:49:37;15.80;99.90
5578;DHT22;2811;51.900;10.734;2024-03-02T11:52:05;15.90;99.80
5578;DHT22;2811;51.900;10.734;2024-03-02T11:54:34;16.10;99.60
5578;DHT22;2811;51.900;10.734;2024-03-02T11:57:02;16.00;99.90
5578;DHT22;2811;51.900;10.734;2024-03-02T11:59:29;15.80;99.90
5578;DHT22;2811;51.900;10.734;2024-03-02T12:01:57;15.90;99.60
5578;DHT22;2811;51.900;10.734;2024-03-02T12:04:24;16.00;99.80
5578;DHT22;2811;51.900;10.734;2024-03-02T12:06:54;16.20;99.00
5578;DHT22;2811;51.900;10.734;2024-03-02T12:09:21;16.20;98.20
5578;DHT22;2811;51.900;10.734;2024-03-02T12:12:01;15.90;99.20
5578;DHT22;2811;51.900;10.734;2024-03-02T12:14:28;15.80;99.70
5578;DHT22;2811;51.900;10.734;2024-03-02T12:16:55;15.70;99.90
5578;DHT22;2811;51.900;10.734;2024-03-02T12:19:24;15.70;99.90
5578;DHT22;2811;51.900;10.734;2024-03-02T12:21:51;15.80;99.50
5578;DHT22;2811;51.900;10.734;2024-03-02T12:24:17;16.00;99.40
5578;DHT22;2811;51.900;10.734;2024-03-02T12:26:44;16.20;99.60
5578;DHT22;2811;51.900;10.734;2024-03-02T12:29:14;16.00;99.60
5578;DHT22;2811;51.900;10.734;2024-03-02T12:31:42;16.20;99.50
5578;DHT22;2811;51.900;10.734;2024-03-02T12:34:08;16.50;99.00
5578;DHT22;2811;51.900;10.734;2024-03-02T12:36:37;16.60;98.50
5578;DHT22;2811;51.900;10.734;2024-03-02T12:39:04;16.60;99.00
5578;DHT22;2811;51.900;10.734;2024-03-02T12:41:31;16.60;98.90
5578;DHT22;2811;51.900;10.734;2024-03-02T12:43:57;16.80;97.80
5578;DHT22;2811;51.900;10.734;2024-03-02T12:46:26;17.20;97.90
5578;DHT22;2811;51.900;10.734;2024-03-02T12:48:53;17.10;98.50
5578;DHT22;2811;51.900;10.734;2024-03-02T12:51:20;17.20;96.70
5578;DHT22;2811;51.900;10.734;2024-03-02T12:53:53;17.20;96.40
5578;DHT22;2811;51.900;10.734;2024-03-02T12:56:19;17.20;97.30
5578;DHT22;2811;51.900;10.734;2024-03-02T12:58:46;17.10;97.10
5578;DHT22;2811;51.900;10.734;2024-03-02T13:01:14;16.70;97.20
5578;DHT22;2811;51.900;10.734;2024-03-02T13:03:48;16.70;97.20
5578;DHT22;2811;51.900;10.734;2024-03-02T13:06:16;16.60;97.90
5578;DHT22;2811;51.900;10.734;2024-03-02T13:08:42;16.40;98.40
5578;DHT22;2811;51.900;10.734;2024-03-02T13:11:10;16.60;97.20
5578;DHT22;2811;51.900;10.734;2024-03-02T13:13:36;16.60;97.90
5578;DHT22;2811;51.900;10.734;2024-03-02T13:16:05;16.50;98.10
5578;DHT22;2811;51.900;10.734;2024-03-02T13:18:34;16.40;99.00
5578;DHT22;2811;51.900;10.734;2024-03-02T13:21:02;16.60;97.40
5578;DHT22;2811;51.900;10.734;2024-03-02T13:23:29;16.60;97.00
5578;DHT22;2811;51.900;10.734;2024-03-02T13:25:56;16.30;97.40
5578;DHT22;2811;51.900;10.734;2024-03-02T13:28:23;16.30;97.60
5578;DHT22;2811;51.900;10.734;2024-03-02T13:30:50;16.00;98.50
5578;DHT22;2811;51.900;10.734;2024-03-02T13:33:17;15.70;98.80
5578;DHT22;2811;51.900;10.734;2024-03-02T13:35:47;15.70;99.40
5578;DHT22;2811;51.900;10.734;2024-03-02T13:38:16;15.80;99.60
5578;DHT22;2811;51.900;10.734;2024-03-02T13:40:43;15.90;99.10
5578;DHT22;2811;51.900;10.734;2024-03-02T13:43:10;15.90;99.10
5578;DHT22;2811;51.900;10.734;2024-03-02T13:45:37;15.90;99.90
5578;DHT22;2811;51.900;10.734;2024-03-02T13:48:04;16.00;98.80
5578;DHT22;2811;51.900;10.734;2024-03-02T13:50:31;16.10;98.90
5578;DHT22;2811;51.900;10.734;2024-03-02T13:52:58;16.00;98.20
5578;DHT22;2811;51.900;10.734;2024-03-02T13:55:26;15.80;97.90
5578;DHT22;2811;51.900;10.734;2024-03-02T13:57:52;15.60;98.60
5578;DHT22;2811;51.900;10.734;2024-03-02T14:00:19;15.50;98.70
5578;DHT22;2811;51.900;10.734;2024-03-02T14:02:46;15.60;99.10
5578;DHT22;2811;51.900;10.734;2024-03-02T14:05:15;15.80;99.10
5578;DHT22;2811;51.900;10.734;2024-03-02T14:07:42;15.70;98.60
5578;DHT22;2811;51.900;10.734;2024-03-02T14:10:09;15.50;98.60
5578;DHT22;2811;51.900;10.734;2024-03-02T14:12:37;15.50;98.80
5578;DHT22;2811;51.900;10.734;2024-03-02T14:15:05;15.40;99.10
5578;DHT22;2811;51.900;10.734;2024-03-02T14:17:32;15.60;99.40
5578;DHT22;2811;51.900;10.734;2024-03-02T14:19:58;15.50;98.90
5578;DHT22;2811;51.900;10.734;2024-03-02T14:22:25;15.20;98.90
5578;DHT22;2811;51.900;10.734;2024-03-02T14:24:52;15.10;99.60
5578;DHT22;2811;51.900;10.734;2024-03-02T14:27:18;15.60;99.90
5578;DHT22;2811;51.900;10.734;2024-03-02T14:29:48;15.00;99.80
5578;DHT22;2811;51.900;10.734;2024-03-02T14:32:14;14.80;99.90
5578;DHT22;2811;51.900;10.734;2024-03-02T14:34:41;14.90;99.90
5578;DHT22;2811;51.900;10.734;2024-03-02T14:37:08;14.80;99.90
5578;DHT22;2811;51.900;10.734;2024-03-02T14:39:34;14.80;99.80
5578;DHT22;2811;51.900;10.734;2024-03-02T14:42:02;14.90;99.90
5578;DHT22;2811;51.900;10.734;2024-03-02T14:44:28;14.70;99.90
5578;DHT22;2811;51.900;10.734;2024-03-02T14:46:56;14.80;99.80
5578;DHT22;2811;51.900;10.734;2024-03-02T14:49:24;14.70;99.90
5578;DHT22;2811;51.900;10.734;2024-03-02T14:51:51;14.70;99.90
5578;DHT22;2811;51.900;10.734;2024-03-02T14:54:18;14.70;99.00
5578;DHT22;2811;51.900;10.734;2024-03-02T14:56:45;14.60;98.40
5578;DHT22;2811;51.900;10.734;2024-03-02T14:59:12;14.50;99.10
5578;DHT22;2811;51.900;10.734;2024-03-02T15:01:38;14.40;99.90
5578;DHT22;2811;51.900;10.734;2024-03-02T15:04:06;14.40;99.90
5578;DHT22;2811;51.900;10.734;2024-03-02T15:06:33;14.30;99.90
5578;DHT22;2811;51.900;10.734;2024-03-02T15:09:00;14.30;99.90
5578;DHT22;2811;51.900;10.734;2024-03-02T15:11:27;14.40;99.90
5578;DHT22;2811;51.900;10.734;2024-03-02T15:13:55;14.30;99.90
5578;DHT22;2811;51.900;10.734;2024-03-02T15:16:22;14.10;99.90
5578;DHT22;2811;51.900;10.734;2024-03-02T15:18:48;14.00;99.90
5578;DHT22;2811;51.900;10.734;2024-03-02T15:21:16;14.10;99.90
5578;DHT22;2811;51.900;10.734;2024-03-02T15:23:44;14.10;99.90
5578;DHT22;2811;51.900;10.734;2024-03-02T15:26:11;14.10;99.90
5578;DHT22;2811;51.900;10.734;2024-03-02T15:28:37;14.20;99.90
5578;DHT22;2811;51.900;10.734;2024-03-02T15:31:04;14.20;99.90
5578;DHT22;2811;51.900;10.734;2024-03-02T15:33:31;14.10;99.70
5578;DHT22;2811;51.900;10.734;2024-03-02T15:35:59;14.10;99.90
5578;DHT22;2811;51.900;10.734;2024-03-02T15:38:27;14.10;99.90
5578;DHT22;2811;51.900;10.734;2024-03-02T15:40:54;14.00;99.90
5578;DHT22;2811;51.900;10.734;2024-03-02T15:43:21;14.00;99.90
5578;DHT22;2811;51.900;10.734;2024-03-02T15:45:49;13.90;99.90
5578;DHT22;2811;51.900;10.734;2024-03-02T15:48:16;13.90;99.90
5578;DHT22;2811;51.900;10.734;2024-03-02T15:50:42;13.90;99.90
5578;DHT22;2811;51.900;10.734;2024-03-02T15:53:09;13.80;99.90
5578;DHT22;2811;51.900;10.734;2024-03-02T15:55:37;13.70;99.90
5578;DHT22;2811;51.900;10.734;2024-03-02T15:58:04;13.50;99.90